sensor_id;sensor_type;location;lat;lon;timestamp;temperature;humidity
12845;DHT22;6489;48.508;9.206;2022-07-09T00:02:48;14.70;1.00
12845;DHT22;6489;48.508;9.206;2022-07-09T00:06:09;14.80;1.00
12845;DHT22;6489;48.508;9.206;2022-07-09T00:19:39;14.20;1.00
12845;DHT22;6489;48.508;9.206;2022-07-09T00:23:01;14.70;1.00
12845;DHT22;6489;48.508;9.206;2022-07-09T00:26:24;14.40;1.00
12845;DHT22;6489;48.508;9.206;2022-07-09T00:29:46;14.70;1.00
12845;DHT22;6489;48.508;9.206;2022-07-09T00:33:09;14.80;1.00
12845;DHT22;6489;48.508;9.206;2022-07-09T00:36:31;14.40;1.00
12845;DHT22;6489;48.508;9.206;2022-07-09T00:39:52;14.20;1.00
12845;DHT22;6489;48.508;9.206;2022-07-09T00:43:17;14.70;1.00
12845;DHT22;6489;48.508;9.206;2022-07-09T00:46:39;14.10;1.00
12845;DHT22;6489;48.508;9.206;2022-07-09T00:50:00;13.80;1.00
12845;DHT22;6489;48.508;9.206;2022-07-09T00:53:24;14.10;1.00
12845;DHT22;6489;48.508;9.206;2022-07-09T00:56:47;13.90;1.00
12845;DHT22;6489;48.508;9.206;2022-07-09T01:00:11;13.80;1.00
12845;DHT22;6489;48.508;9.206;2022-07-09T01:03:33;13.80;1.00
12845;DHT22;6489;48.508;9.206;2022-07-09T01:06:55;13.70;1.00
12845;DHT22;6489;48.508;9.206;2022-07-09T01:10:18;13.60;1.00
12845;DHT22;6489;48.508;9.206;2022-07-09T01:13:40;13.70;1.00
12845;DHT22;6489;48.508;9.206;2022-07-09T10:13:53;24.90;1.00
12845;DHT22;6489;48.508;9.206;2022-07-09T10:24:06;25.60;1.00
12845;DHT22;6489;48.508;9.206;2022-07-09T10:27:29;26.20;1.00
12845;DHT22;6489;48.508;9.206;2022-07-09T10:38:03;27.90;1.00
12845;DHT22;6489;48.508;9.206;2022-07-09T10:41:25;28.30;1.00
12845;DHT22;6489;48.508;9.206;2022-07-09T10:44:48;27.60;1.00
12845;DHT22;6489;48.508;9.206;2022-07-09T10:48:11;27.30;1.00
12845;DHT22;6489;48.508;9.206;2022-07-09T10:54:58;27.00;1.00
12845;DHT22;6489;48.508;9.206;2022-07-09T10:58:20;26.50;1.00
12845;DHT22;6489;48.508;9.206;2022-07-09T11:01:42;26.60;1.00
12845;DHT22;6489;48.508;9.206;2022-07-09T11:05:05;27.60;1.00
12845;DHT22;6489;48.508;9.206;2022-07-09T11:08:27;27.70;1.00
12845;DHT22;6489;48.508;9.206;2022-07-09T11:11:52;27.70;1.00
12845;DHT22;6489;48.508;9.206;2022-07-09T11:15:17;27.40;1.00
12845;DHT22;6489;48.508;9.206;2022-07-09T11:18:39;27.30;1.00
12845;DHT22;6489;48.508;9.206;2022-07-09T11:22:01;25.90;1.00
12845;DHT22;6489;48.508;9.206;2022-07-09T11:25:24;27.00;99.90
12845;DHT22;6489;48.508;9.206;2022-07-09T11:32:16;26.80;1.00
12845;DHT22;6489;48.508;9.206;2022-07-09T11:35:38;27.90;1.00
12845;DHT22;6489;48.508;9.206;2022-07-09T11:39:00;27.70;1.00
12845;DHT22;6489;48.508;9.206;2022-07-09T11:52:42;27.50;99.90
12845;DHT22;6489;48.508;9.206;2022-07-09T12:13:03;29.40;99.90
12845;DHT22;6489;48.508;9.206;2022-07-09T12:19:49;29.20;99.90
12845;DHT22;6489;48.508;9.206;2022-07-09T12:23:10;29.40;1.00
12845;DHT22;6489;48.508;9.206;2022-07-09T12:26:32;30.10;1.00
12845;DHT22;6489;48.508;9.206;2022-07-09T12:33:16;25.90;1.00
12845;DHT22;6489;48.508;9.206;2022-07-09T12:36:40;26.00;1.00
12845;DHT22;6489;48.508;9.206;2022-07-09T12:40:04;25.50;99.90
12845;DHT22;6489;48.508;9.206;2022-07-09T12:43:26;26.00;1.00
12845;DHT22;6489;48.508;9.206;2022-07-09T12:53:34;27.20;1.00
12845;DHT22;6489;48.508;9.206;2022-07-09T12:56:56;27.40;99.90
12845;DHT22;6489;48.508;9.206;2022-07-09T13:03:41;26.60;1.00
12845;DHT22;6489;48.508;9.206;2022-07-09T13:07:03;27.10;1.00
12845;DHT22;6489;48.508;9.206;2022-07-09T13:10:26;27.10;99.90
12845;DHT22;6489;48.508;9.206;2022-07-09T13:13:48;26.40;1.00
12845;DHT22;6489;48.508;9.206;2022-07-09T13:17:10;27.10;1.00
12845;DHT22;6489;48.508;9.206;2022-07-09T13:23:54;27.70;1.00
12845;DHT22;6489;48.508;9.206;2022-07-09T13:27:17;27.20;99.90
12845;DHT22;6489;48.508;9.206;2022-07-09T13:30:40;28.00;1.00
12845;DHT22;6489;48.508;9.206;2022-07-09T13:34:02;28.10;1.00
12845;DHT22;6489;48.508;9.206;2022-07-09T13:44:09;27.80;99.90
12845;DHT22;6489;48.508;9.206;2022-07-09T13:50:54;27.20;1.00
12845;DHT22;6489;48.508;9.206;2022-07-09T13:54:16;24.70;1.00
12845;DHT22;6489;48.508;9.206;2022-07-09T13:57:38;26.60;1.00
12845;DHT22;6489;48.508;9.206;2022-07-09T14:01:01;25.70;99.90
12845;DHT22;6489;48.508;9.206;2022-07-09T14:04:23;25.50;1.00
12845;DHT22;6489;48.508;9.206;2022-07-09T14:07:46;24.80;1.00
12845;DHT22;6489;48.508;9.206;2022-07-09T14:11:08;25.90;1.00
12845;DHT22;6489;48.508;9.206;2022-07-09T14:17:53;25.80;1.00
12845;DHT22;6489;48.508;9.206;2022-07-09T14:24:37;27.00;1.00
12845;DHT22;6489;48.508;9.206;2022-07-09T14:27:59;25.60;1.00
12845;DHT22;6489;48.508;9.206;2022-07-09T14:34:44;26.40;99.90
12845;DHT22;6489;48.508;9.206;2022-07-09T14:38:06;25.10;1.00
12845;DHT22;6489;48.508;9.206;2022-07-09T14:41:28;24.90;99.90
12845;DHT22;6489;48.508;9.206;2022-07-09T14:44:50;26.00;99.90
12845;DHT22;6489;48.508;9.206;2022-07-09T14:48:14;27.00;1.00
12845;DHT22;6489;48.508;9.206;2022-07-09T14:51:37;27.50;99.90
12845;DHT22;6489;48.508;9.206;2022-07-09T14:58:22;27.60;1.00
12845;DHT22;6489;48.508;9.206;2022-07-09T15:01:44;26.70;1.00
12845;DHT22;6489;48.508;9.206;2022-07-09T15:05:06;25.80;99.90
12845;DHT22;6489;48.508;9.206;2022-07-09T15:08:29;26.50;99.90
12845;DHT22;6489;48.508;9.206;2022-07-09T15:11:51;26.80;1.00
12845;DHT22;6489;48.508;9.206;2022-07-09T15:15:13;26.80;1.00
12845;DHT22;6489;48.508;9.206;2022-07-09T15:18:35;26.40;1.00
12845;DHT22;6489;48.508;9.206;2022-07-09T15:21:57;26.30;1.00
12845;DHT22;6489;48.508;9.206;2022-07-09T15:28:42;26.80;1.00
12845;DHT22;6489;48.508;9.206;2022-07-09T15:35:26;26.40;1.00
12845;DHT22;6489;48.508;9.206;2022-07-09T15:38:48;26.10;1.00
12845;DHT22;6489;48.508;9.206;2022-07-09T15:52:18;27.00;99.90
12845;DHT22;6489;48.508;9.206;2022-07-09T15:55:40;26.60;1.00
12845;DHT22;6489;48.508;9.206;2022-07-09T15:59:03;27.00;1.00
12845;DHT22;6489;48.508;9.206;2022-07-09T16:02:25;26.00;1.00
12845;DHT22;6489;48.508;9.206;2022-07-09T16:09:09;27.10;1.00
12845;DHT22;6489;48.508;9.206;2022-07-09T16:12:31;26.20;1.00
12845;DHT22;6489;48.508;9.206;2022-07-09T16:16:12;26.60;99.90
12845;DHT22;6489;48.508;9.206;2022-07-09T16:19:34;25.20;1.00
12845;DHT22;6489;48.508;9.206;2022-07-09T16:22:56;25.70;1.00
12845;DHT22;6489;48.508;9.206;2022-07-09T16:29:40;25.60;1.00
12845;DHT22;6489;48.508;9.206;2022-07-09T16:33:04;25.20;1.00
12845;DHT22;6489;48.508;9.206;2022-07-09T16:39:48;26.40;1.00
12845;DHT22;6489;48.508;9.206;2022-07-09T16:43:10;25.80;1.00
12845;DHT22;6489;48.508;9.206;2022-07-09T16:46:32;25.30;1.00
12845;DHT22;6489;48.508;9.206;2022-07-09T16:49:55;25.90;1.00
12845;DHT22;6489;48.508;9.206;2022-07-09T16:56:39;25.90;1.00
12845;DHT22;6489;48.508;9.206;2022-07-09T17:00:01;25.20;1.00
12845;DHT22;6489;48.508;9.206;2022-07-09T17:03:23;26.50;1.00
12845;DHT22;6489;48.508;9.206;2022-07-09T17:10:09;25.20;1.00
12845;DHT22;6489;48.508;9.206;2022-07-09T17:16:53;25.90;1.00
12845;DHT22;6489;48.508;9.206;2022-07-09T17:23:39;24.80;99.90
12845;DHT22;6489;48.508;9.206;2022-07-09T17:30:23;24.50;1.00
12845;DHT22;6489;48.508;9.206;2022-07-09T17:37:07;24.70;99.90
12845;DHT22;6489;48.508;9.206;2022-07-09T17:43:52;24.40;1.00
12845;DHT22;6489;48.508;9.206;2022-07-09T17:47:14;24.50;1.00
12845;DHT22;6489;48.508;9.206;2022-07-09T17:50:37;24.70;1.00
12845;DHT22;6489;48.508;9.206;2022-07-09T18:00:44;23.60;1.00
12845;DHT22;6489;48.508;9.206;2022-07-09T18:04:07;24.00;1.00
12845;DHT22;6489;48.508;9.206;2022-07-09T18:07:29;24.30;1.00
12845;DHT22;6489;48.508;9.206;2022-07-09T18:17:38;23.50;1.00
12845;DHT22;6489;48.508;9.206;2022-07-09T18:21:00;24.10;1.00
12845;DHT22;6489;48.508;9.206;2022-07-09T18:24:22;24.10;99.90
12845;DHT22;6489;48.508;9.206;2022-07-09T18:27:44;23.00;1.00
12845;DHT22;6489;48.508;9.206;2022-07-09T18:31:07;23.70;1.00
12845;DHT22;6489;48.508;9.206;2022-07-09T18:34:29;24.10;1.00
12845;DHT22;6489;48.508;9.206;2022-07-09T18:37:51;24.30;1.00
12845;DHT22;6489;48.508;9.206;2022-07-09T18:41:13;24.40;1.00
12845;DHT22;6489;48.508;9.206;2022-07-09T18:44:35;24.40;1.00
12845;DHT22;6489;48.508;9.206;2022-07-09T18:48:00;24.60;1.00
12845;DHT22;6489;48.508;9.206;2022-07-09T18:51:24;24.30;1.00
12845;DHT22;6489;48.508;9.206;2022-07-09T18:58:08;23.90;1.00
12845;DHT22;6489;48.508;9.206;2022-07-09T19:01:32;23.90;99.90
12845;DHT22;6489;48.508;9.206;2022-07-09T19:04:55;23.20;1.00
12845;DHT22;6489;48.508;9.206;2022-07-09T19:18:26;23.10;1.00
12845;DHT22;6489;48.508;9.206;2022-07-09T19:28:34;24.30;1.00
12845;DHT22;6489;48.508;9.206;2022-07-09T19:35:35;24.90;1.00
12845;DHT22;6489;48.508;9.206;2022-07-09T19:42:21;24.20;1.00
12845;DHT22;6489;48.508;9.206;2022-07-09T19:45:43;24.10;1.00
12845;DHT22;6489;48.508;9.206;2022-07-09T19:49:05;23.70;1.00
12845;DHT22;6489;48.508;9.206;2022-07-09T19:52:27;24.10;1.00
12845;DHT22;6489;48.508;9.206;2022-07-09T19:59:12;24.40;1.00
12845;DHT22;6489;48.508;9.206;2022-07-09T20:05:56;23.40;1.00
12845;DHT22;6489;48.508;9.206;2022-07-09T20:09:18;23.10;1.00
12845;DHT22;6489;48.508;9.206;2022-07-09T20:12:41;22.80;1.00
12845;DHT22;6489;48.508;9.206;2022-07-09T20:16:04;22.40;1.00
12845;DHT22;6489;48.508;9.206;2022-07-09T20:19:26;22.00;1.00
12845;DHT22;6489;48.508;9.206;2022-07-09T20:22:48;22.00;1.00
12845;DHT22;6489;48.508;9.206;2022-07-09T20:26:10;21.50;1.00
12845;DHT22;6489;48.508;9.206;2022-07-09T20:29:33;22.60;1.00
12845;DHT22;6489;48.508;9.206;2022-07-09T20:32:56;21.50;1.00
12845;DHT22;6489;48.508;9.206;2022-07-09T20:36:18;21.50;1.00
12845;DHT22;6489;48.508;9.206;2022-07-09T20:43:02;21.70;1.00
12845;DHT22;6489;48.508;9.206;2022-07-09T20:46:25;21.70;99.90
12845;DHT22;6489;48.508;9.206;2022-07-09T20:49:48;21.50;1.00
12845;DHT22;6489;48.508;9.206;2022-07-09T20:56:32;21.20;1.00
12845;DHT22;6489;48.508;9.206;2022-07-09T20:59:54;21.80;1.00
12845;DHT22;6489;48.508;9.206;2022-07-09T21:03:17;21.50;99.90
12845;DHT22;6489;48.508;9.206;2022-07-09T21:06:39;21.50;1.00
12845;DHT22;6489;48.508;9.206;2022-07-09T21:10:01;21.20;1.00
12845;DHT22;6489;48.508;9.206;2022-07-09T21:13:22;21.40;1.00
12845;DHT22;6489;48.508;9.206;2022-07-09T21:16:44;21.10;1.00
12845;DHT22;6489;48.508;9.206;2022-07-09T21:20:25;20.30;1.00
12845;DHT22;6489;48.508;9.206;2022-07-09T21:23:47;19.80;1.00
12845;DHT22;6489;48.508;9.206;2022-07-09T21:27:09;19.50;1.00
12845;DHT22;6489;48.508;9.206;2022-07-09T21:30:31;19.70;1.00
12845;DHT22;6489;48.508;9.206;2022-07-09T21:33:53;19.50;1.00
12845;DHT22;6489;48.508;9.206;2022-07-09T21:37:17;18.80;1.00
12845;DHT22;6489;48.508;9.206;2022-07-09T21:40:38;19.20;1.00
12845;DHT22;6489;48.508;9.206;2022-07-09T21:44:00;20.00;1.00
12845;DHT22;6489;48.508;9.206;2022-07-09T21:47:22;19.00;1.00
12845;DHT22;6489;48.508;9.206;2022-07-09T21:50:44;18.70;1.00
12845;DHT22;6489;48.508;9.206;2022-07-09T21:57:29;19.60;1.00
12845;DHT22;6489;48.508;9.206;2022-07-09T22:00:53;19.40;1.00
12845;DHT22;6489;48.508;9.206;2022-07-09T22:07:39;18.20;1.00
12845;DHT22;6489;48.508;9.206;2022-07-09T22:11:03;18.80;1.00
12845;DHT22;6489;48.508;9.206;2022-07-09T22:14:25;18.60;1.00
12845;DHT22;6489;48.508;9.206;2022-07-09T22:17:47;18.90;1.00
12845;DHT22;6489;48.508;9.206;2022-07-09T22:21:09;18.80;1.00
12845;DHT22;6489;48.508;9.206;2022-07-09T22:24:30;18.90;1.00
12845;DHT22;6489;48.508;9.206;2022-07-09T22:27:54;18.60;1.00
12845;DHT22;6489;48.508;9.206;2022-07-09T22:34:38;18.10;1.00
12845;DHT22;6489;48.508;9.206;2022-07-09T22:37:59;18.80;1.00
12845;DHT22;6489;48.508;9.206;2022-07-09T22:41:21;18.60;1.00
12845;DHT22;6489;48.508;9.206;2022-07-09T22:44:45;18.00;1.00
12845;DHT22;6489;48.508;9.206;2022-07-09T22:48:06;18.00;1.00
12845;DHT22;6489;48.508;9.206;2022-07-09T22:51:28;18.10;1.00
12845;DHT22;6489;48.508;9.206;2022-07-09T22:54:50;18.70;1.00
12845;DHT22;6489;48.508;9.206;2022-07-09T22:58:13;18.20;1.00
12845;DHT22;6489;48.508;9.206;2022-07-09T23:01:36;18.70;1.00
12845;DHT22;6489;48.508;9.206;2022-07-09T23:04:58;18.50;1.00
12845;DHT22;6489;48.508;9.206;2022-07-09T23:08:20;18.30;1.00
12845;DHT22;6489;48.508;9.206;2022-07-09T23:11:59;18.60;1.00
12845;DHT22;6489;48.508;9.206;2022-07-09T23:15:21;18.80;1.00
12845;DHT22;6489;48.508;9.206;2022-07-09T23:18:44;18.60;1.00
12845;DHT22;6489;48.508;9.206;2022-07-09T23:22:06;18.30;1.00
12845;DHT22;6489;48.508;9.206;2022-07-09T23:25:28;18.70;1.00
12845;DHT22;6489;48.508;9.206;2022-07-09T23:28:51;18.60;1.00
12845;DHT22;6489;48.508;9.206;2022-07-09T23:32:13;18.90;1.00
12845;DHT22;6489;48.508;9.206;2022-07-09T23:35:36;19.00;1.00
12845;DHT22;6489;48.508;9.206;2022-07-09T23:38:58;18.70;1.00
12845;DHT22;6489;48.508;9.206;2022-07-09T23:42:19;18.50;1.00
12845;DHT22;6489;48.508;9.206;2022-07-09T23:49:03;18.50;1.00
12845;DHT22;6489;48.508;9.206;2022-07-09T23:52:27;19.00;1.00
12845;DHT22;6489;48.508;9.206;2022-07-09T23:55:49;19.70;1.00
